createdAt,value
2018-06-12T00:01:52.408Z,14.80
2018-06-12T00:04:18.336Z,14.80
2018-06-12T00:06:44.242Z,14.80
2018-06-12T00:09:10.166Z,14.80
2018-06-12T00:11:36.094Z,14.80
2018-06-12T00:14:02.789Z,14.70
2018-06-12T00:16:28.710Z,14.70
2018-06-12T00:18:54.659Z,14.70
2018-06-12T00:21:20.596Z,14.80
2018-06-12T00:23:46.551Z,14.80
2018-06-12T00:26:12.468Z,14.80
2018-06-12T00:28:38.448Z,14.80
2018-06-12T00:31:04.386Z,14.80
2018-06-12T00:33:30.329Z,14.80
2018-06-12T00:35:56.968Z,14.80
2018-06-12T00:38:23.618Z,14.80
2018-06-12T00:40:50.300Z,14.70
2018-06-12T00:43:16.243Z,14.70
2018-06-12T00:45:42.167Z,14.70
2018-06-12T00:48:08.096Z,14.70
2018-06-12T00:50:34.044Z,14.70
2018-06-12T00:52:59.965Z,14.70
2018-06-12T00:55:25.928Z,14.70
2018-06-12T00:57:51.849Z,14.70
2018-06-12T01:00:17.810Z,14.70
2018-06-12T01:02:44.476Z,14.70
2018-06-12T01:05:10.407Z,14.70
2018-06-12T01:07:36.338Z,14.70
2018-06-12T01:10:02.276Z,14.70
2018-06-12T01:12:28.208Z,14.70
2018-06-12T01:14:54.153Z,14.70
2018-06-12T01:17:20.810Z,14.60
2018-06-12T01:19:46.760Z,14.60
2018-06-12T01:22:12.692Z,14.50
2018-06-12T01:24:38.624Z,14.50
2018-06-12T01:27:04.557Z,14.50
2018-06-12T01:29:30.481Z,14.50
2018-06-12T01:31:56.440Z,14.50
2018-06-12T01:34:23.101Z,14.50
2018-06-12T01:36:49.037Z,14.50
2018-06-12T01:39:14.941Z,14.50
2018-06-12T01:41:40.981Z,14.50
2018-06-12T01:44:06.907Z,14.50
2018-06-12T01:46:32.864Z,14.50
2018-06-12T01:48:58.787Z,14.60
2018-06-12T01:51:24.692Z,14.60
2018-06-12T01:53:50.651Z,14.60
2018-06-12T01:56:17.307Z,14.60
2018-06-12T01:58:43.244Z,14.60
2018-06-12T02:01:09.158Z,14.70
2018-06-12T02:03:35.092Z,14.60
2018-06-12T02:06:00.989Z,14.60
2018-06-12T02:08:27.662Z,14.60
2018-06-12T02:10:53.575Z,14.60
2018-06-12T02:13:19.507Z,14.60
2018-06-12T02:15:45.435Z,14.60
2018-06-12T02:18:11.398Z,14.60
2018-06-12T02:20:38.047Z,14.50
2018-06-12T02:23:04.700Z,14.50
2018-06-12T02:25:30.635Z,14.50
2018-06-12T02:27:56.560Z,14.40
2018-06-12T02:30:22.501Z,14.40
2018-06-12T02:32:48.437Z,14.40
2018-06-12T02:35:14.388Z,14.40
2018-06-12T02:37:41.049Z,14.50
2018-06-12T02:40:06.975Z,14.50
2018-06-12T02:42:32.909Z,14.50
2018-06-12T02:44:58.856Z,14.60
2018-06-12T02:47:24.795Z,14.60
2018-06-12T02:49:50.752Z,14.60
2018-06-12T02:52:16.682Z,14.60
2018-06-12T02:54:42.630Z,14.60
2018-06-12T02:57:08.581Z,14.60
2018-06-12T02:59:34.502Z,14.70
2018-06-12T03:02:00.485Z,14.60
2018-06-12T03:04:26.399Z,14.60
2018-06-12T03:06:52.363Z,14.60
2018-06-12T03:09:18.270Z,14.60
2018-06-12T03:11:44.959Z,14.60
2018-06-12T03:14:11.609Z,14.60
2018-06-12T03:16:37.554Z,14.60
2018-06-12T03:19:03.448Z,14.60
2018-06-12T03:21:29.396Z,14.70
2018-06-12T03:23:55.311Z,14.70
2018-06-12T03:26:21.247Z,14.80
2018-06-12T03:28:47.171Z,14.70
2018-06-12T03:31:13.115Z,14.80
2018-06-12T03:33:39.015Z,14.90
2018-06-12T03:36:04.956Z,14.70
2018-06-12T03:38:30.858Z,14.80
2018-06-12T03:40:56.744Z,14.80
2018-06-12T03:43:22.695Z,14.80
2018-06-12T03:45:48.641Z,14.80
2018-06-12T03:48:14.622Z,14.90
2018-06-12T03:50:40.524Z,14.90
2018-06-12T03:53:06.481Z,14.90
2018-06-12T03:55:32.418Z,14.90
2018-06-12T03:57:58.372Z,14.90
2018-06-12T04:00:25.042Z,15.00
2018-06-12T04:02:51.000Z,15.00
2018-06-12T04:05:16.923Z,15.00
2018-06-12T04:07:42.894Z,15.00
2018-06-12T04:10:09.559Z,15.00
2018-06-12T04:12:35.510Z,15.00
2018-06-12T04:15:01.489Z,15.10
2018-06-12T04:17:27.448Z,15.10
2018-06-12T04:19:53.378Z,15.00
2018-06-12T04:22:19.325Z,15.10
2018-06-12T04:24:45.260Z,15.10
2018-06-12T04:27:11.917Z,15.10
2018-06-12T04:29:37.852Z,15.10
2018-06-12T04:32:03.760Z,15.10
2018-06-12T04:34:29.715Z,15.20
2018-06-12T04:36:55.624Z,15.10
2018-06-12T04:39:21.563Z,15.10
2018-06-12T04:41:47.465Z,15.10
2018-06-12T04:44:13.395Z,15.20
2018-06-12T04:46:39.289Z,15.20
2018-06-12T04:49:05.204Z,15.20
2018-06-12T04:51:31.844Z,15.20
2018-06-12T04:53:57.807Z,15.20
2018-06-12T04:56:23.747Z,15.30
2018-06-12T04:58:49.715Z,15.30
2018-06-12T05:01:15.646Z,15.40
2018-06-12T05:03:41.561Z,15.40
2018-06-12T05:06:07.506Z,15.40
2018-06-12T05:08:33.428Z,15.30
2018-06-12T05:10:59.365Z,15.40
2018-06-12T05:13:25.275Z,15.40
2018-06-12T05:15:51.230Z,15.40
2018-06-12T05:18:17.170Z,15.50
2018-06-12T05:20:43.837Z,15.60
2018-06-12T05:23:09.763Z,15.50
2018-06-12T05:25:35.787Z,15.60
2018-06-12T05:28:02.416Z,15.60
2018-06-12T05:30:28.400Z,15.60
2018-06-12T05:32:54.385Z,15.70
2018-06-12T05:35:20.374Z,15.60
2018-06-12T05:37:46.421Z,15.80
2018-06-12T05:40:12.378Z,16.00
2018-06-12T05:42:38.318Z,16.00
2018-06-12T05:45:05.004Z,16.10
2018-06-12T05:47:30.947Z,16.10
2018-06-12T05:49:56.861Z,16.10
2018-06-12T05:52:22.834Z,16.10
2018-06-12T05:54:49.509Z,16.20
2018-06-12T05:57:15.487Z,16.20
2018-06-12T05:59:42.157Z,16.00
2018-06-12T06:02:08.105Z,16.00
2018-06-12T06:04:34.051Z,16.00
2018-06-12T06:06:59.981Z,15.90
2018-06-12T06:09:25.942Z,15.90
2018-06-12T06:11:51.876Z,15.90
2018-06-12T06:14:17.837Z,16.00
2018-06-12T06:16:43.754Z,16.10
2018-06-12T06:19:09.695Z,16.20
2018-06-12T06:21:35.641Z,16.30
2018-06-12T06:24:02.332Z,16.10
2018-06-12T06:26:28.279Z,16.10
2018-06-12T06:28:54.217Z,16.10
2018-06-12T06:31:20.882Z,16.10
2018-06-12T06:33:46.830Z,16.10
2018-06-12T06:36:12.826Z,16.10
2018-06-12T06:38:39.493Z,16.10
2018-06-12T06:41:05.424Z,16.20
2018-06-12T06:43:31.375Z,16.10
2018-06-12T06:45:58.063Z,16.30
2018-06-12T06:48:23.993Z,16.20
2018-06-12T06:50:49.950Z,16.40
2018-06-12T06:53:15.868Z,16.50
2018-06-12T06:55:41.846Z,16.60
2018-06-12T06:58:07.765Z,16.70
2018-06-12T07:00:33.714Z,16.70
2018-06-12T07:02:59.640Z,16.80
2018-06-12T07:05:25.601Z,17.10
2018-06-12T07:07:52.262Z,17.70
2018-06-12T07:10:18.201Z,17.70
2018-06-12T07:12:44.110Z,17.90
2018-06-12T07:15:10.076Z,17.60
2018-06-12T07:17:35.984Z,17.60
2018-06-12T07:20:01.915Z,17.30
2018-06-12T07:22:27.839Z,17.30
2018-06-12T07:24:53.747Z,17.20
2018-06-12T07:27:19.712Z,17.30
2018-06-12T07:29:46.383Z,17.40
2018-06-12T07:32:12.382Z,17.40
2018-06-12T07:34:38.275Z,17.40
2018-06-12T07:37:04.216Z,17.50
2018-06-12T07:39:30.885Z,17.20
2018-06-12T07:41:56.856Z,17.30
2018-06-12T07:44:22.786Z,17.00
2018-06-12T07:46:48.716Z,16.70
2018-06-12T07:49:14.649Z,16.80
2018-06-12T07:51:41.361Z,17.20
2018-06-12T07:54:07.282Z,17.20
2018-06-12T07:56:33.211Z,17.60
2018-06-12T07:58:59.136Z,17.90
2018-06-12T08:01:25.073Z,17.80
2018-06-12T08:03:51.755Z,18.30
2018-06-12T08:06:17.671Z,18.30
2018-06-12T08:08:43.624Z,18.70
2018-06-12T08:11:09.592Z,18.60
2018-06-12T08:13:35.537Z,18.30
2018-06-12T08:16:01.488Z,18.30
2018-06-12T08:18:27.436Z,18.20
2018-06-12T08:20:54.110Z,18.10
2018-06-12T08:23:20.055Z,18.10
2018-06-12T08:25:46.003Z,18.30
2018-06-12T08:28:12.722Z,18.40
2018-06-12T08:30:38.720Z,18.40
2018-06-12T08:33:04.625Z,18.60
2018-06-12T08:35:30.609Z,18.80
2018-06-12T08:37:56.515Z,19.00
2018-06-12T08:40:22.457Z,18.80
2018-06-12T08:42:48.397Z,18.90
2018-06-12T08:45:14.345Z,18.70
2018-06-12T08:47:40.296Z,18.50
2018-06-12T08:50:06.977Z,18.50
2018-06-12T08:52:32.891Z,18.50
2018-06-12T08:54:58.820Z,18.40
2018-06-12T08:57:25.516Z,18.40
2018-06-12T08:59:51.451Z,18.30
2018-06-12T09:02:17.409Z,18.40
2018-06-12T09:04:44.079Z,18.80
2018-06-12T09:07:10.034Z,18.80
2018-06-12T09:09:35.947Z,18.70
2018-06-12T09:12:01.867Z,18.70
2018-06-12T09:14:27.821Z,18.80
2018-06-12T09:16:53.757Z,18.80
2018-06-12T09:19:20.450Z,18.90
2018-06-12T09:21:46.391Z,18.90
2018-06-12T09:24:12.317Z,19.10
2018-06-12T09:26:38.259Z,19.10
2018-06-12T09:29:04.920Z,18.80
2018-06-12T09:31:30.892Z,18.90
2018-06-12T09:33:56.828Z,18.80
2018-06-12T09:36:22.765Z,18.90
2018-06-12T09:38:49.459Z,18.80
2018-06-12T09:41:15.390Z,18.80
2018-06-12T09:43:41.343Z,19.00
2018-06-12T09:46:08.019Z,19.30
2018-06-12T09:48:33.994Z,19.30
2018-06-12T09:50:59.909Z,19.50
2018-06-12T09:53:25.833Z,19.50
2018-06-12T09:55:51.792Z,19.50
2018-06-12T09:58:17.735Z,19.30
2018-06-12T10:00:43.665Z,19.00
2018-06-12T10:03:09.596Z,18.90
2018-06-12T10:05:35.553Z,18.70
2018-06-12T10:08:01.498Z,18.80
2018-06-12T10:10:27.495Z,19.00
2018-06-12T10:12:53.435Z,19.00
2018-06-12T10:15:20.147Z,18.50
2018-06-12T10:17:46.077Z,18.50
2018-06-12T10:20:12.016Z,18.40
2018-06-12T10:22:38.712Z,18.30
2018-06-12T10:25:04.644Z,18.20
2018-06-12T10:27:30.581Z,18.00
2018-06-12T10:29:56.497Z,17.70
2018-06-12T10:32:22.448Z,17.60
2018-06-12T10:34:49.117Z,17.50
2018-06-12T10:37:15.152Z,17.50
2018-06-12T10:39:41.024Z,17.50
2018-06-12T10:42:07.695Z,17.70
2018-06-12T10:44:33.628Z,17.70
2018-06-12T10:46:59.533Z,17.90
2018-06-12T10:49:25.501Z,17.90
2018-06-12T10:51:51.433Z,18.00
2018-06-12T10:54:17.361Z,18.20
2018-06-12T10:56:43.288Z,18.40
2018-06-12T10:59:09.986Z,18.60
2018-06-12T11:01:35.912Z,18.50
2018-06-12T11:04:01.864Z,18.60
2018-06-12T11:06:27.787Z,18.50
2018-06-12T11:08:53.729Z,18.70
2018-06-12T11:11:20.416Z,18.60
2018-06-12T11:13:46.351Z,18.60
2018-06-12T11:16:12.287Z,18.70
2018-06-12T11:18:38.192Z,18.80
2018-06-12T11:21:04.132Z,18.70
2018-06-12T11:23:30.052Z,18.60
2018-06-12T11:25:56.027Z,18.40
2018-06-12T11:28:21.935Z,18.20
2018-06-12T11:30:47.885Z,18.00
2018-06-12T11:33:13.809Z,18.00
2018-06-12T11:35:39.759Z,17.90
2018-06-12T11:38:05.686Z,18.00
2018-06-12T11:40:31.639Z,18.00
2018-06-12T11:42:58.292Z,17.90
2018-06-12T11:45:24.231Z,17.80
2018-06-12T11:47:50.166Z,17.90
2018-06-12T11:50:16.115Z,18.00
2018-06-12T11:52:42.045Z,18.00
2018-06-12T11:55:07.991Z,18.10
2018-06-12T11:57:33.922Z,18.30
2018-06-12T11:59:59.852Z,18.50
2018-06-12T12:02:25.806Z,18.60
2018-06-12T12:04:51.734Z,18.70
2018-06-12T12:07:17.686Z,18.80
2018-06-12T12:09:44.347Z,18.90
2018-06-12T12:12:10.301Z,18.90
2018-06-12T12:14:36.222Z,18.70
2018-06-12T12:17:02.180Z,18.40
2018-06-12T12:19:28.849Z,17.90
2018-06-12T12:21:54.821Z,17.90
2018-06-12T12:24:20.755Z,17.50
2018-06-12T12:26:46.708Z,17.30
2018-06-12T12:29:13.392Z,17.40
2018-06-12T12:31:39.340Z,17.40
2018-06-12T12:34:05.296Z,17.40
2018-06-12T12:36:31.229Z,17.40
2018-06-12T12:38:57.209Z,17.40
2018-06-12T12:41:23.891Z,17.80
2018-06-12T12:43:49.830Z,17.80
2018-06-12T12:46:15.745Z,17.70
2018-06-12T12:48:41.716Z,17.60
2018-06-12T12:51:09.223Z,17.30
2018-06-12T12:53:35.228Z,17.30
2018-06-12T12:56:01.154Z,17.10
2018-06-12T12:58:27.091Z,17.30
2018-06-12T13:00:53.016Z,17.30
2018-06-12T13:03:18.983Z,17.40
2018-06-12T13:05:45.693Z,17.60
2018-06-12T13:08:11.667Z,17.60
2018-06-12T13:10:37.593Z,17.60
2018-06-12T13:13:04.272Z,17.60
2018-06-12T13:15:30.232Z,17.50
2018-06-12T13:17:56.918Z,17.10
2018-06-12T13:20:22.881Z,17.10
2018-06-12T13:22:49.554Z,16.90
2018-06-12T13:25:15.504Z,16.90
2018-06-12T13:27:41.416Z,16.80
2018-06-12T13:30:07.359Z,16.60
2018-06-12T13:32:33.305Z,16.60
2018-06-12T13:34:59.241Z,16.50
2018-06-12T13:37:25.163Z,16.50
2018-06-12T13:39:51.873Z,16.50
2018-06-12T13:42:17.835Z,16.40
2018-06-12T13:44:44.519Z,16.60
2018-06-12T13:47:10.435Z,16.60
2018-06-12T13:49:36.354Z,16.60
2018-06-12T13:52:02.308Z,16.60
2018-06-12T13:54:28.241Z,16.70
2018-06-12T13:56:54.202Z,16.70
2018-06-12T13:59:20.135Z,16.70
2018-06-12T14:01:46.062Z,16.80
2018-06-12T14:04:12.003Z,16.80
2018-06-12T14:06:37.946Z,16.80
2018-06-12T14:09:03.871Z,16.80
2018-06-12T14:11:29.853Z,17.00
2018-06-12T14:13:55.777Z,17.30
2018-06-12T14:16:21.718Z,17.60
2018-06-12T14:18:47.634Z,17.70
2018-06-12T14:21:13.601Z,17.80
2018-06-12T14:23:39.544Z,17.70
2018-06-12T14:26:05.476Z,17.40
2018-06-12T14:28:31.440Z,17.20
2018-06-12T14:30:57.419Z,17.20
2018-06-12T14:33:23.377Z,17.10
2018-06-12T14:35:49.328Z,17.10
2018-06-12T14:38:16.053Z,17.00
2018-06-12T14:40:42.006Z,17.00
2018-06-12T14:43:08.687Z,17.00
2018-06-12T14:45:34.629Z,16.90
2018-06-12T14:48:00.569Z,17.00
2018-06-12T14:50:26.504Z,17.10
2018-06-12T14:52:53.200Z,17.50
2018-06-12T14:55:19.125Z,17.50
2018-06-12T14:57:45.075Z,17.60
2018-06-12T15:00:11.758Z,17.70
2018-06-12T15:02:37.716Z,17.70
2018-06-12T15:05:03.650Z,17.80
2018-06-12T15:07:29.563Z,17.80
2018-06-12T15:09:55.516Z,18.00
2018-06-12T15:12:22.169Z,17.90
2018-06-12T15:14:48.123Z,17.90
2018-06-12T15:17:14.048Z,17.70
2018-06-12T15:19:40.022Z,17.50
2018-06-12T15:22:12.953Z,17.40
2018-06-12T15:24:38.892Z,17.10
2018-06-12T15:27:04.809Z,16.90
2018-06-12T15:29:30.748Z,16.90
2018-06-12T15:31:56.658Z,16.90
2018-06-12T15:34:23.337Z,17.10
2018-06-12T15:36:50.022Z,17.20
2018-06-12T15:39:15.975Z,17.20
2018-06-12T15:41:41.889Z,17.10
2018-06-12T15:44:07.817Z,17.20
2018-06-12T15:46:33.767Z,17.20
2018-06-12T15:49:00.429Z,17.20
2018-06-12T15:51:26.397Z,17.20
2018-06-12T15:53:52.327Z,17.40
2018-06-12T15:56:18.280Z,17.50
2018-06-12T15:58:44.206Z,17.80
2018-06-12T16:01:10.164Z,17.90
2018-06-12T16:03:36.103Z,17.70
2018-06-12T16:06:02.039Z,17.70
2018-06-12T16:08:27.975Z,17.90
2018-06-12T16:10:54.659Z,17.70
2018-06-12T16:13:20.587Z,17.70
2018-06-12T16:15:46.510Z,17.60
2018-06-12T16:18:12.455Z,17.60
2018-06-12T16:20:38.406Z,17.60
2018-06-12T16:23:05.083Z,18.00
2018-06-12T16:25:30.994Z,18.00
2018-06-12T16:27:56.960Z,18.00
2018-06-12T16:30:22.906Z,18.00
2018-06-12T16:32:49.581Z,17.90
2018-06-12T16:35:15.526Z,17.90
2018-06-12T16:37:41.502Z,17.90
2018-06-12T16:40:07.421Z,18.00
2018-06-12T16:42:34.091Z,17.90
2018-06-12T16:45:00.055Z,17.80
2018-06-12T16:47:26.037Z,17.80
2018-06-12T16:49:52.848Z,17.60
2018-06-12T16:52:18.876Z,17.60
2018-06-12T16:54:44.911Z,17.50
2018-06-12T16:57:11.042Z,17.40
2018-06-12T16:59:37.095Z,17.60
2018-06-12T17:02:03.835Z,17.80
2018-06-12T17:04:30.554Z,17.70
2018-06-12T17:06:57.290Z,17.80
2018-06-12T17:09:23.241Z,17.80
2018-06-12T17:11:49.194Z,17.70
2018-06-12T17:14:15.151Z,17.60
2018-06-12T17:16:41.200Z,17.40
2018-06-12T17:19:08.001Z,17.10
2018-06-12T17:21:33.980Z,17.10
2018-06-12T17:23:59.999Z,17.10
2018-06-12T17:26:26.712Z,16.80
2018-06-12T17:28:52.631Z,16.80
2018-06-12T17:31:18.565Z,16.80
2018-06-12T17:33:44.483Z,16.80
2018-06-12T17:36:10.442Z,16.70
2018-06-12T17:38:36.412Z,16.70
2018-06-12T17:41:02.455Z,16.70
2018-06-12T17:43:28.450Z,16.80
2018-06-12T17:45:54.403Z,16.70
2018-06-12T17:48:20.360Z,16.60
2018-06-12T17:50:46.296Z,16.50
2018-06-12T17:53:12.969Z,16.40
2018-06-12T17:55:38.916Z,16.30
2018-06-12T17:58:04.866Z,16.20
2018-06-12T18:00:30.844Z,16.10
2018-06-12T18:02:56.761Z,16.00
2018-06-12T18:05:22.692Z,15.90
2018-06-12T18:07:48.636Z,15.90
2018-06-12T18:10:14.572Z,15.90
2018-06-12T18:12:40.524Z,16.00
2018-06-12T18:15:07.181Z,16.00
2018-06-12T18:17:33.131Z,15.90
2018-06-12T18:19:59.062Z,16.00
2018-06-12T18:22:25.018Z,16.00
2018-06-12T18:24:51.719Z,15.90
2018-06-12T18:27:17.674Z,15.90
2018-06-12T18:29:44.380Z,15.90
2018-06-12T18:32:10.338Z,15.90
2018-06-12T18:34:36.280Z,15.90
2018-06-12T18:37:02.220Z,15.90
2018-06-12T18:39:28.181Z,15.80
2018-06-12T18:41:54.118Z,15.90
2018-06-12T18:44:20.099Z,15.80
2018-06-12T18:46:46.014Z,15.90
2018-06-12T18:49:12.062Z,15.70
2018-06-12T18:51:37.986Z,15.80
2018-06-12T18:54:03.948Z,15.90
2018-06-12T18:56:30.611Z,15.80
2018-06-12T18:58:56.594Z,15.80
2018-06-12T19:01:22.538Z,15.90
2018-06-12T19:03:49.221Z,15.80
2018-06-12T19:06:15.144Z,15.80
2018-06-12T19:08:41.110Z,15.70
2018-06-12T19:11:07.785Z,15.80
2018-06-12T19:13:33.763Z,15.80
2018-06-12T19:15:59.693Z,15.80
2018-06-12T19:18:25.613Z,15.70
2018-06-12T19:20:52.345Z,15.50
2018-06-12T19:23:18.266Z,15.50
2018-06-12T19:25:44.227Z,15.40
2018-06-12T19:28:10.163Z,15.40
2018-06-12T19:30:36.135Z,15.30
2018-06-12T19:33:02.065Z,15.20
2018-06-12T19:35:28.018Z,15.10
2018-06-12T19:37:53.968Z,15.10
2018-06-12T19:40:19.969Z,15.10
2018-06-12T19:42:45.894Z,15.00
2018-06-12T19:45:11.864Z,15.00
2018-06-12T19:47:37.815Z,15.00
2018-06-12T19:50:04.518Z,15.00
2018-06-12T19:52:30.438Z,15.00
2018-06-12T19:54:56.372Z,15.00
2018-06-12T19:57:23.059Z,15.00
2018-06-12T19:59:49.002Z,15.00
2018-06-12T20:02:14.967Z,14.90
2018-06-12T20:04:41.690Z,14.90
2018-06-12T20:07:07.623Z,14.90
2018-06-12T20:09:33.551Z,15.00
2018-06-12T20:12:00.233Z,14.90
2018-06-12T20:14:26.183Z,14.90
2018-06-12T20:16:52.228Z,14.90
2018-06-12T20:19:18.173Z,14.90
2018-06-12T20:21:44.166Z,14.90
2018-06-12T20:24:10.101Z,14.80
2018-06-12T20:26:36.805Z,14.80
2018-06-12T20:29:02.755Z,14.80
2018-06-12T20:31:28.737Z,14.80
2018-06-12T20:33:54.684Z,14.80
2018-06-12T20:36:20.637Z,14.70
2018-06-12T20:38:47.332Z,14.70
2018-06-12T20:41:13.265Z,14.70
2018-06-12T20:43:39.246Z,14.70
2018-06-12T20:46:05.181Z,14.70
2018-06-12T20:48:31.145Z,14.70
2018-06-12T20:50:57.839Z,14.70
2018-06-12T20:53:23.824Z,14.60
2018-06-12T20:55:50.493Z,14.70
2018-06-12T20:58:16.450Z,14.70
2018-06-12T21:00:42.401Z,14.70
2018-06-12T21:03:09.173Z,14.60
2018-06-12T21:05:35.153Z,14.60
2018-06-12T21:08:01.113Z,14.70
2018-06-12T21:10:27.820Z,14.60
2018-06-12T21:12:53.768Z,14.60
2018-06-12T21:15:20.465Z,14.70
2018-06-12T21:17:46.382Z,14.70
2018-06-12T21:20:13.097Z,14.60
2018-06-12T21:22:39.015Z,14.60
2018-06-12T21:25:04.964Z,14.60
2018-06-12T21:27:30.886Z,14.60
2018-06-12T21:29:56.845Z,14.60
2018-06-12T21:32:23.514Z,14.60
2018-06-12T21:34:49.462Z,14.60
2018-06-12T21:37:15.387Z,14.60
2018-06-12T21:39:41.310Z,14.50
2018-06-12T21:42:07.260Z,14.50
2018-06-12T21:44:33.203Z,14.50
2018-06-12T21:46:59.894Z,14.40
2018-06-12T21:49:25.840Z,14.40
2018-06-12T21:51:51.791Z,14.50
2018-06-12T21:54:17.747Z,14.50
2018-06-12T21:56:43.758Z,14.50
2018-06-12T21:59:09.669Z,14.40
2018-06-12T22:01:35.604Z,14.40
2018-06-12T22:04:01.528Z,14.40
2018-06-12T22:06:27.484Z,14.40
2018-06-12T22:08:53.403Z,14.40
2018-06-12T22:11:19.363Z,14.40
2018-06-12T22:13:46.054Z,14.50
2018-06-12T22:16:11.983Z,14.40
2018-06-12T22:18:37.930Z,14.50
2018-06-12T22:21:04.604Z,14.40
2018-06-12T22:23:30.539Z,14.40
2018-06-12T22:25:56.491Z,14.40
2018-06-12T22:28:22.445Z,14.50
2018-06-12T22:30:49.171Z,14.40
2018-06-12T22:33:15.084Z,14.40
2018-06-12T22:35:41.035Z,14.40
2018-06-12T22:38:07.719Z,14.40
2018-06-12T22:40:33.646Z,14.40
2018-06-12T22:42:59.576Z,14.40
2018-06-12T22:45:25.526Z,14.40
2018-06-12T22:47:52.197Z,14.40
2018-06-12T22:50:18.126Z,14.40
2018-06-12T22:52:44.052Z,14.40
2018-06-12T22:55:09.999Z,14.40
2018-06-12T22:57:35.936Z,14.30
2018-06-12T23:00:02.635Z,14.40
2018-06-12T23:02:28.596Z,14.40
2018-06-12T23:04:54.541Z,14.30
2018-06-12T23:07:21.212Z,14.40
2018-06-12T23:09:47.171Z,14.40
2018-06-12T23:12:13.111Z,14.40
2018-06-12T23:14:39.093Z,14.40
2018-06-12T23:17:05.159Z,14.40
2018-06-12T23:19:30.978Z,14.40
2018-06-12T23:21:56.917Z,14.40
2018-06-12T23:24:23.574Z,14.40
2018-06-12T23:26:49.545Z,14.40
2018-06-12T23:29:15.487Z,14.40
2018-06-12T23:31:42.193Z,14.40
2018-06-12T23:34:08.140Z,14.40
2018-06-12T23:36:34.075Z,14.50
2018-06-12T23:39:00.009Z,14.50
2018-06-12T23:41:26.700Z,14.50
2018-06-12T23:43:52.657Z,14.40
2018-06-12T23:46:19.347Z,14.50
2018-06-12T23:48:45.264Z,14.50
2018-06-12T23:51:11.182Z,14.50
2018-06-12T23:53:37.144Z,14.50
2018-06-12T23:56:03.074Z,14.50
2018-06-12T23:58:29.025Z,14.60
